sensor_id;sensor_type;location;lat;lon;timestamp;pressure;altitude;pressure_sealevel;temperature;humidity
18527;BME280;9393;42.158;24.748;2022-09-17T00:00:49;98561.03;;;25.87;53.70
18527;BME280;9393;42.158;24.748;2022-09-17T00:03:54;98571.75;;;25.92;53.62
18527;BME280;9393;42.158;24.748;2022-09-17T00:06:58;98575.97;;;25.83;54.10
18527;BME280;9393;42.158;24.748;2022-09-17T00:10:03;98573.63;;;26.02;53.79
18527;BME280;9393;42.158;24.748;2022-09-17T00:13:08;98574.44;;;26.02;53.18
18527;BME280;9393;42.158;24.748;2022-09-17T00:16:12;98561.09;;;26.12;53.51
18527;BME280;9393;42.158;24.748;2022-09-17T00:19:17;98556.19;;;25.74;54.25
18527;BME280;9393;42.158;24.748;2022-09-17T00:22:21;98553.47;;;25.54;54.66
18527;BME280;9393;42.158;24.748;2022-09-17T00:25:26;98558.53;;;25.55;54.67
18527;BME280;9393;42.158;24.748;2022-09-17T00:28:29;98564.09;;;25.49;54.66
18527;BME280;9393;42.158;24.748;2022-09-17T00:31:33;98556.72;;;25.71;54.58
18527;BME280;9393;42.158;24.748;2022-09-17T00:34:37;98556.81;;;25.34;55.70
18527;BME280;9393;42.158;24.748;2022-09-17T00:37:40;98560.25;;;25.25;56.32
18527;BME280;9393;42.158;24.748;2022-09-17T00:40:45;98567.63;;;25.59;54.87
18527;BME280;9393;42.158;24.748;2022-09-17T00:43:50;98566.25;;;25.52;55.03
18527;BME280;9393;42.158;24.748;2022-09-17T00:46:53;98572.69;;;25.51;55.25
18527;BME280;9393;42.158;24.748;2022-09-17T00:50:01;98570.03;;;25.56;55.66
18527;BME280;9393;42.158;24.748;2022-09-17T00:53:07;98567.53;;;25.39;55.58
18527;BME280;9393;42.158;24.748;2022-09-17T00:56:18;98565.34;;;25.26;56.45
18527;BME280;9393;42.158;24.748;2022-09-17T00:59:23;98550.00;;;25.06;56.80
18527;BME280;9393;42.158;24.748;2022-09-17T01:02:27;98549.34;;;25.31;56.08
18527;BME280;9393;42.158;24.748;2022-09-17T01:05:35;98557.94;;;25.43;55.77
18527;BME280;9393;42.158;24.748;2022-09-17T01:09:01;98569.53;;;25.64;54.98
18527;BME280;9393;42.158;24.748;2022-09-17T01:12:17;98556.16;;;25.54;55.69
18527;BME280;9393;42.158;24.748;2022-09-17T01:15:29;98550.44;;;25.35;56.32
18527;BME280;9393;42.158;24.748;2022-09-17T01:18:45;98536.81;;;25.32;56.66
18527;BME280;9393;42.158;24.748;2022-09-17T01:21:58;98542.72;;;25.44;56.08
18527;BME280;9393;42.158;24.748;2022-09-17T01:25:19;98561.69;;;25.47;55.66
18527;BME280;9393;42.158;24.748;2022-09-17T01:28:33;98561.66;;;25.37;56.48
18527;BME280;9393;42.158;24.748;2022-09-17T01:31:45;98569.22;;;25.03;57.11
18527;BME280;9393;42.158;24.748;2022-09-17T01:34:56;98565.06;;;25.28;56.38
18527;BME280;9393;42.158;24.748;2022-09-17T01:38:10;98562.38;;;25.23;57.02
18527;BME280;9393;42.158;24.748;2022-09-17T01:41:22;98562.38;;;25.23;57.36
18527;BME280;9393;42.158;24.748;2022-09-17T01:44:34;98559.69;;;25.12;57.43
18527;BME280;9393;42.158;24.748;2022-09-17T01:47:43;98559.44;;;25.24;56.69
18527;BME280;9393;42.158;24.748;2022-09-17T01:50:51;98566.38;;;25.20;56.85
18527;BME280;9393;42.158;24.748;2022-09-17T01:53:58;98575.63;;;25.07;57.68
18527;BME280;9393;42.158;24.748;2022-09-17T01:57:06;98565.47;;;24.99;57.72
18527;BME280;9393;42.158;24.748;2022-09-17T02:00:12;98546.88;;;25.14;57.40
18527;BME280;9393;42.158;24.748;2022-09-17T02:03:21;98547.28;;;24.91;58.29
18527;BME280;9393;42.158;24.748;2022-09-17T02:06:30;98545.97;;;24.57;59.47
18527;BME280;9393;42.158;24.748;2022-09-17T02:09:37;98549.88;;;24.44;59.25
18527;BME280;9393;42.158;24.748;2022-09-17T02:12:45;98542.50;;;24.25;60.13
18527;BME280;9393;42.158;24.748;2022-09-17T02:15:55;98530.13;;;24.40;59.37
18527;BME280;9393;42.158;24.748;2022-09-17T02:19:04;98532.94;;;24.65;58.77
18527;BME280;9393;42.158;24.748;2022-09-17T02:22:15;98531.06;;;24.61;58.72
18527;BME280;9393;42.158;24.748;2022-09-17T02:25:24;98536.19;;;24.68;58.70
18527;BME280;9393;42.158;24.748;2022-09-17T02:28:35;98525.91;;;24.44;60.24
18527;BME280;9393;42.158;24.748;2022-09-17T02:31:41;98521.19;;;24.25;61.07
18527;BME280;9393;42.158;24.748;2022-09-17T02:34:46;98530.13;;;24.40;60.36
18527;BME280;9393;42.158;24.748;2022-09-17T02:37:49;98528.50;;;24.39;59.98
18527;BME280;9393;42.158;24.748;2022-09-17T02:41:00;98529.00;;;24.68;59.24
18527;BME280;9393;42.158;24.748;2022-09-17T02:44:13;98507.78;;;24.46;59.96
18527;BME280;9393;42.158;24.748;2022-09-17T02:47:49;98502.00;;;24.23;60.99
18527;BME280;9393;42.158;24.748;2022-09-17T02:51:13;98504.38;;;24.56;59.34
18527;BME280;9393;42.158;24.748;2022-09-17T02:54:24;98503.97;;;24.74;59.04
18527;BME280;9393;42.158;24.748;2022-09-17T02:57:37;98496.94;;;24.63;59.01
18527;BME280;9393;42.158;24.748;2022-09-17T03:00:43;98496.81;;;24.43;60.13
18527;BME280;9393;42.158;24.748;2022-09-17T03:03:48;98495.78;;;24.44;60.14
18527;BME280;9393;42.158;24.748;2022-09-17T03:06:54;98485.75;;;24.61;59.55
18527;BME280;9393;42.158;24.748;2022-09-17T03:09:59;98478.16;;;24.11;61.68
18527;BME280;9393;42.158;24.748;2022-09-17T03:13:02;98473.25;;;24.25;60.95
18527;BME280;9393;42.158;24.748;2022-09-17T03:16:06;98472.00;;;24.05;62.11
18527;BME280;9393;42.158;24.748;2022-09-17T03:19:09;98465.06;;;24.04;62.07
18527;BME280;9393;42.158;24.748;2022-09-17T03:22:14;98462.91;;;24.01;62.23
18527;BME280;9393;42.158;24.748;2022-09-17T03:25:17;98474.13;;;24.35;60.71
18527;BME280;9393;42.158;24.748;2022-09-17T03:28:21;98461.88;;;24.02;62.57
18527;BME280;9393;42.158;24.748;2022-09-17T03:31:26;98466.38;;;24.02;61.52
18527;BME280;9393;42.158;24.748;2022-09-17T03:34:30;98464.00;;;24.05;62.06
18527;BME280;9393;42.158;24.748;2022-09-17T03:37:35;98456.47;;;23.92;62.28
18527;BME280;9393;42.158;24.748;2022-09-17T03:40:38;98455.56;;;24.13;61.59
18527;BME280;9393;42.158;24.748;2022-09-17T03:43:42;98433.91;;;24.37;60.85
18527;BME280;9393;42.158;24.748;2022-09-17T03:46:45;98437.56;;;24.31;60.85
18527;BME280;9393;42.158;24.748;2022-09-17T03:49:48;98435.22;;;23.71;62.95
18527;BME280;9393;42.158;24.748;2022-09-17T03:52:54;98419.78;;;23.73;62.79
18527;BME280;9393;42.158;24.748;2022-09-17T03:55:58;98432.25;;;23.40;64.18
18527;BME280;9393;42.158;24.748;2022-09-17T03:59:01;98437.38;;;23.20;64.58
18527;BME280;9393;42.158;24.748;2022-09-17T04:02:04;98445.06;;;23.70;62.69
18527;BME280;9393;42.158;24.748;2022-09-17T04:05:08;98441.38;;;23.71;62.04
18527;BME280;9393;42.158;24.748;2022-09-17T04:08:13;98427.88;;;23.51;62.42
18527;BME280;9393;42.158;24.748;2022-09-17T04:11:16;98429.22;;;23.53;62.51
18527;BME280;9393;42.158;24.748;2022-09-17T04:14:19;98447.13;;;23.63;62.34
18527;BME280;9393;42.158;24.748;2022-09-17T04:17:23;98445.16;;;23.80;61.66
18527;BME280;9393;42.158;24.748;2022-09-17T04:20:26;98451.63;;;23.14;63.82
18527;BME280;9393;42.158;24.748;2022-09-17T04:23:31;98435.66;;;23.57;62.37
18527;BME280;9393;42.158;24.748;2022-09-17T04:26:34;98428.25;;;23.96;60.75
18527;BME280;9393;42.158;24.748;2022-09-17T04:29:37;98425.28;;;24.25;59.74
18527;BME280;9393;42.158;24.748;2022-09-17T04:32:41;98430.38;;;23.94;61.28
18527;BME280;9393;42.158;24.748;2022-09-17T04:35:45;98407.88;;;23.80;61.47
18527;BME280;9393;42.158;24.748;2022-09-17T04:38:50;98399.69;;;23.87;61.53
18527;BME280;9393;42.158;24.748;2022-09-17T04:41:53;98398.63;;;23.56;62.60
18527;BME280;9393;42.158;24.748;2022-09-17T04:44:57;98417.34;;;23.66;62.15
18527;BME280;9393;42.158;24.748;2022-09-17T04:48:01;98436.38;;;23.53;62.64
18527;BME280;9393;42.158;24.748;2022-09-17T04:51:04;98442.75;;;23.79;61.99
18527;BME280;9393;42.158;24.748;2022-09-17T04:54:09;98451.13;;;23.92;62.05
18527;BME280;9393;42.158;24.748;2022-09-17T04:57:12;98446.59;;;24.25;60.68
18527;BME280;9393;42.158;24.748;2022-09-17T05:00:17;98448.69;;;23.86;61.85
18527;BME280;9393;42.158;24.748;2022-09-17T05:03:20;98459.22;;;24.07;60.88
18527;BME280;9393;42.158;24.748;2022-09-17T05:06:24;98450.56;;;23.90;61.20
18527;BME280;9393;42.158;24.748;2022-09-17T05:09:28;98445.66;;;24.09;60.51
18527;BME280;9393;42.158;24.748;2022-09-17T05:12:31;98439.63;;;24.19;59.56
18527;BME280;9393;42.158;24.748;2022-09-17T05:15:35;98435.25;;;24.39;58.80
18527;BME280;9393;42.158;24.748;2022-09-17T05:18:38;98444.38;;;24.53;58.08
18527;BME280;9393;42.158;24.748;2022-09-17T05:21:41;98452.81;;;24.35;58.33
18527;BME280;9393;42.158;24.748;2022-09-17T05:24:46;98453.19;;;24.54;58.19
18527;BME280;9393;42.158;24.748;2022-09-17T05:27:50;98454.34;;;24.73;57.43
18527;BME280;9393;42.158;24.748;2022-09-17T05:30:54;98457.59;;;24.01;59.00
18527;BME280;9393;42.158;24.748;2022-09-17T05:33:57;98465.59;;;24.80;56.79
18527;BME280;9393;42.158;24.748;2022-09-17T05:37:00;98459.94;;;25.24;55.62
18527;BME280;9393;42.158;24.748;2022-09-17T05:40:07;98466.31;;;25.12;55.50
18527;BME280;9393;42.158;24.748;2022-09-17T05:43:11;98476.34;;;25.57;54.57
18527;BME280;9393;42.158;24.748;2022-09-17T05:46:14;98481.88;;;25.41;54.77
18527;BME280;9393;42.158;24.748;2022-09-17T05:49:17;98481.81;;;24.74;56.64
18527;BME280;9393;42.158;24.748;2022-09-17T05:52:21;98489.22;;;25.13;56.27
18527;BME280;9393;42.158;24.748;2022-09-17T05:55:25;98486.34;;;24.73;57.48
18527;BME280;9393;42.158;24.748;2022-09-17T05:58:29;98497.13;;;24.51;58.45
18527;BME280;9393;42.158;24.748;2022-09-17T06:01:33;98494.88;;;25.22;56.29
18527;BME280;9393;42.158;24.748;2022-09-17T06:04:36;98501.94;;;25.53;55.50
18527;BME280;9393;42.158;24.748;2022-09-17T06:07:39;98507.91;;;25.08;56.42
18527;BME280;9393;42.158;24.748;2022-09-17T06:10:44;98520.00;;;25.36;56.04
18527;BME280;9393;42.158;24.748;2022-09-17T06:13:47;98520.03;;;24.84;57.71
18527;BME280;9393;42.158;24.748;2022-09-17T06:16:54;98521.38;;;24.87;57.39
18527;BME280;9393;42.158;24.748;2022-09-17T06:19:57;98518.16;;;25.37;56.74
18527;BME280;9393;42.158;24.748;2022-09-17T06:23:01;98512.19;;;26.02;54.77
18527;BME280;9393;42.158;24.748;2022-09-17T06:26:05;98510.88;;;26.30;53.97
18527;BME280;9393;42.158;24.748;2022-09-17T06:29:09;98526.78;;;25.54;55.58
18527;BME280;9393;42.158;24.748;2022-09-17T06:32:15;98539.09;;;25.65;55.64
18527;BME280;9393;42.158;24.748;2022-09-17T06:35:19;98534.56;;;24.67;58.39
18527;BME280;9393;42.158;24.748;2022-09-17T06:38:22;98538.09;;;25.19;57.24
18527;BME280;9393;42.158;24.748;2022-09-17T06:41:27;98553.97;;;24.62;58.70
18527;BME280;9393;42.158;24.748;2022-09-17T06:44:30;98553.75;;;24.63;58.63
18527;BME280;9393;42.158;24.748;2022-09-17T06:47:33;98558.47;;;24.93;57.84
18527;BME280;9393;42.158;24.748;2022-09-17T06:50:36;98541.34;;;25.31;56.09
18527;BME280;9393;42.158;24.748;2022-09-17T06:53:43;98536.88;;;25.47;56.17
18527;BME280;9393;42.158;24.748;2022-09-17T06:56:48;98529.44;;;25.54;55.55
18527;BME280;9393;42.158;24.748;2022-09-17T06:59:51;98538.31;;;25.80;55.14
18527;BME280;9393;42.158;24.748;2022-09-17T07:02:55;98537.06;;;26.28;53.85
18527;BME280;9393;42.158;24.748;2022-09-17T07:05:58;98560.00;;;26.13;53.85
18527;BME280;9393;42.158;24.748;2022-09-17T07:09:02;98554.16;;;26.42;52.05
18527;BME280;9393;42.158;24.748;2022-09-17T07:12:12;98538.88;;;25.97;52.99
18527;BME280;9393;42.158;24.748;2022-09-17T07:15:16;98516.97;;;26.15;53.39
18527;BME280;9393;42.158;24.748;2022-09-17T07:18:19;98502.03;;;25.89;54.00
18527;BME280;9393;42.158;24.748;2022-09-17T07:21:23;98512.16;;;25.92;53.79
18527;BME280;9393;42.158;24.748;2022-09-17T07:24:26;98510.69;;;25.49;54.42
18527;BME280;9393;42.158;24.748;2022-09-17T07:27:35;98538.34;;;26.00;53.40
18527;BME280;9393;42.158;24.748;2022-09-17T07:30:38;98543.47;;;26.17;53.42
18527;BME280;9393;42.158;24.748;2022-09-17T07:33:41;98510.31;;;26.53;52.57
18527;BME280;9393;42.158;24.748;2022-09-17T07:36:45;98504.63;;;26.80;51.67
18527;BME280;9393;42.158;24.748;2022-09-17T07:39:48;98500.44;;;27.38;50.65
18527;BME280;9393;42.158;24.748;2022-09-17T07:42:55;98484.91;;;27.40;50.60
18527;BME280;9393;42.158;24.748;2022-09-17T07:46:00;98490.03;;;27.80;48.83
18527;BME280;9393;42.158;24.748;2022-09-17T07:49:04;98487.53;;;28.56;48.36
18527;BME280;9393;42.158;24.748;2022-09-17T07:52:07;98488.13;;;29.25;46.46
18527;BME280;9393;42.158;24.748;2022-09-17T07:55:10;98485.66;;;29.52;45.35
18527;BME280;9393;42.158;24.748;2022-09-17T07:58:15;98499.44;;;29.03;45.57
18527;BME280;9393;42.158;24.748;2022-09-17T08:01:18;98499.00;;;28.67;46.25
18527;BME280;9393;42.158;24.748;2022-09-17T08:04:23;98507.88;;;28.91;46.34
18527;BME280;9393;42.158;24.748;2022-09-17T08:07:26;98504.13;;;29.35;45.70
18527;BME280;9393;42.158;24.748;2022-09-17T08:10:30;98504.88;;;28.93;46.87
18527;BME280;9393;42.158;24.748;2022-09-17T08:13:34;98492.47;;;29.63;45.58
18527;BME280;9393;42.158;24.748;2022-09-17T08:16:44;98490.31;;;30.02;44.43
18527;BME280;9393;42.158;24.748;2022-09-17T08:19:48;98510.50;;;30.32;44.64
18527;BME280;9393;42.158;24.748;2022-09-17T08:22:57;98519.56;;;30.23;43.83
18527;BME280;9393;42.158;24.748;2022-09-17T08:26:02;98505.84;;;30.70;42.62
18527;BME280;9393;42.158;24.748;2022-09-17T08:29:08;98502.94;;;31.35;41.47
18527;BME280;9393;42.158;24.748;2022-09-17T08:32:12;98483.09;;;31.58;41.37
18527;BME280;9393;42.158;24.748;2022-09-17T08:35:15;98485.22;;;31.20;41.92
18527;BME280;9393;42.158;24.748;2022-09-17T08:38:18;98497.97;;;30.87;42.25
18527;BME280;9393;42.158;24.748;2022-09-17T08:41:27;98486.00;;;30.20;42.71
18527;BME280;9393;42.158;24.748;2022-09-17T08:44:38;98482.22;;;30.67;42.06
18527;BME280;9393;42.158;24.748;2022-09-17T08:47:45;98481.50;;;31.30;40.90
18527;BME280;9393;42.158;24.748;2022-09-17T08:50:49;98479.31;;;30.77;41.19
18527;BME280;9393;42.158;24.748;2022-09-17T08:53:58;98480.72;;;31.29;40.75
18527;BME280;9393;42.158;24.748;2022-09-17T08:57:12;98476.34;;;30.92;41.37
18527;BME280;9393;42.158;24.748;2022-09-17T09:00:23;98463.31;;;31.49;40.50
18527;BME280;9393;42.158;24.748;2022-09-17T09:03:37;98444.78;;;31.70;39.78
18527;BME280;9393;42.158;24.748;2022-09-17T09:06:49;98443.09;;;31.74;39.59
18527;BME280;9393;42.158;24.748;2022-09-17T09:10:05;98430.16;;;31.62;39.78
18527;BME280;9393;42.158;24.748;2022-09-17T09:13:13;98432.84;;;32.07;39.14
18527;BME280;9393;42.158;24.748;2022-09-17T09:16:23;98422.81;;;31.98;38.87
18527;BME280;9393;42.158;24.748;2022-09-17T09:19:30;98409.75;;;32.14;39.28
18527;BME280;9393;42.158;24.748;2022-09-17T09:22:46;98399.34;;;31.99;38.70
18527;BME280;9393;42.158;24.748;2022-09-17T09:25:53;98394.78;;;32.30;38.24
18527;BME280;9393;42.158;24.748;2022-09-17T09:29:04;98384.63;;;31.83;38.91
18527;BME280;9393;42.158;24.748;2022-09-17T09:32:21;98390.81;;;32.36;39.12
18527;BME280;9393;42.158;24.748;2022-09-17T09:35:27;98378.25;;;32.32;38.05
18527;BME280;9393;42.158;24.748;2022-09-17T09:38:32;98361.28;;;32.71;37.43
18527;BME280;9393;42.158;24.748;2022-09-17T09:41:41;98374.81;;;32.48;38.28
18527;BME280;9393;42.158;24.748;2022-09-17T09:44:45;98360.16;;;32.72;37.02
18527;BME280;9393;42.158;24.748;2022-09-17T09:47:58;98356.38;;;32.90;36.65
18527;BME280;9393;42.158;24.748;2022-09-17T09:51:17;98363.09;;;33.35;35.85
18527;BME280;9393;42.158;24.748;2022-09-17T09:54:36;98362.13;;;33.66;35.77
18527;BME280;9393;42.158;24.748;2022-09-17T09:57:47;98364.69;;;33.11;36.17
18527;BME280;9393;42.158;24.748;2022-09-17T10:00:52;98346.06;;;33.00;36.10
18527;BME280;9393;42.158;24.748;2022-09-17T10:03:56;98347.50;;;32.98;36.18
18527;BME280;9393;42.158;24.748;2022-09-17T10:07:01;98337.47;;;32.81;35.94
18527;BME280;9393;42.158;24.748;2022-09-17T10:10:08;98336.47;;;32.21;37.23
18527;BME280;9393;42.158;24.748;2022-09-17T10:13:12;98335.25;;;32.04;37.60
18527;BME280;9393;42.158;24.748;2022-09-17T10:16:20;98338.94;;;31.55;38.22
18527;BME280;9393;42.158;24.748;2022-09-17T10:19:26;98342.88;;;30.37;40.09
18527;BME280;9393;42.158;24.748;2022-09-17T10:22:31;98365.78;;;30.89;39.18
18527;BME280;9393;42.158;24.748;2022-09-17T10:25:41;98392.56;;;30.94;40.10
18527;BME280;9393;42.158;24.748;2022-09-17T10:28:47;98417.09;;;30.51;48.45
18527;BME280;9393;42.158;24.748;2022-09-17T10:31:53;98394.19;;;30.40;51.29
18527;BME280;9393;42.158;24.748;2022-09-17T10:35:00;98340.16;;;29.77;54.35
18527;BME280;9393;42.158;24.748;2022-09-17T10:38:26;98374.28;;;29.44;54.19
18527;BME280;9393;42.158;24.748;2022-09-17T10:41:29;98376.56;;;29.37;59.55
18527;BME280;9393;42.158;24.748;2022-09-17T10:44:34;98392.25;;;29.06;55.89
18527;BME280;9393;42.158;24.748;2022-09-17T10:47:41;98383.41;;;28.87;58.87
18527;BME280;9393;42.158;24.748;2022-09-17T10:50:48;98368.59;;;28.71;60.13
18527;BME280;9393;42.158;24.748;2022-09-17T10:54:04;98396.31;;;28.85;58.54
18527;BME280;9393;42.158;24.748;2022-09-17T10:57:12;98396.00;;;28.68;59.98
18527;BME280;9393;42.158;24.748;2022-09-17T11:00:18;98430.22;;;28.76;58.94
18527;BME280;9393;42.158;24.748;2022-09-17T11:04:02;98458.84;;;28.57;61.16
18527;BME280;9393;42.158;24.748;2022-09-17T11:07:37;98439.84;;;28.25;60.66
18527;BME280;9393;42.158;24.748;2022-09-17T11:10:49;98456.34;;;27.74;61.99
18527;BME280;9393;42.158;24.748;2022-09-17T11:14:03;98495.13;;;27.28;65.32
18527;BME280;9393;42.158;24.748;2022-09-17T11:17:16;98547.09;;;27.27;62.52
18527;BME280;9393;42.158;24.748;2022-09-17T11:20:43;98599.88;;;26.91;64.82
18527;BME280;9393;42.158;24.748;2022-09-17T11:24:07;98679.84;;;25.75;72.53
18527;BME280;9393;42.158;24.748;2022-09-17T11:27:26;98662.84;;;25.44;76.56
18527;BME280;9393;42.158;24.748;2022-09-17T11:30:41;98725.53;;;24.99;79.25
18527;BME280;9393;42.158;24.748;2022-09-17T11:34:02;98693.28;;;24.79;79.60
18527;BME280;9393;42.158;24.748;2022-09-17T11:37:13;98656.72;;;25.06;79.63
18527;BME280;9393;42.158;24.748;2022-09-17T11:40:27;98634.09;;;25.14;77.18
18527;BME280;9393;42.158;24.748;2022-09-17T11:43:35;98623.28;;;24.89;78.47
18527;BME280;9393;42.158;24.748;2022-09-17T11:46:42;98602.84;;;25.04;77.59
18527;BME280;9393;42.158;24.748;2022-09-17T11:49:50;98607.50;;;25.29;74.73
18527;BME280;9393;42.158;24.748;2022-09-17T11:53:02;98583.13;;;25.62;74.00
18527;BME280;9393;42.158;24.748;2022-09-17T11:56:15;98569.03;;;25.87;72.74
18527;BME280;9393;42.158;24.748;2022-09-17T11:59:25;98542.34;;;25.92;71.43
18527;BME280;9393;42.158;24.748;2022-09-17T12:02:43;98500.69;;;26.01;70.81
18527;BME280;9393;42.158;24.748;2022-09-17T12:05:51;98462.75;;;26.40;68.44
18527;BME280;9393;42.158;24.748;2022-09-17T12:09:00;98421.53;;;26.56;67.67
18527;BME280;9393;42.158;24.748;2022-09-17T12:12:11;98401.69;;;26.77;67.65
18527;BME280;9393;42.158;24.748;2022-09-17T12:15:39;98379.41;;;26.97;65.69
18527;BME280;9393;42.158;24.748;2022-09-17T12:18:52;98393.66;;;27.31;63.03
18527;BME280;9393;42.158;24.748;2022-09-17T12:22:03;98414.00;;;27.27;62.58
18527;BME280;9393;42.158;24.748;2022-09-17T12:25:11;98407.06;;;27.70;63.06
18527;BME280;9393;42.158;24.748;2022-09-17T12:28:20;98403.19;;;27.86;62.58
18527;BME280;9393;42.158;24.748;2022-09-17T12:31:32;98395.78;;;27.73;63.81
18527;BME280;9393;42.158;24.748;2022-09-17T12:34:46;98386.09;;;27.82;63.56
18527;BME280;9393;42.158;24.748;2022-09-17T12:38:07;98390.97;;;26.87;65.54
18527;BME280;9393;42.158;24.748;2022-09-17T12:41:15;98395.13;;;27.57;65.62
18527;BME280;9393;42.158;24.748;2022-09-17T12:48:29;98371.84;;;28.68;62.24
18527;BME280;9393;42.158;24.748;2022-09-17T12:51:53;98332.84;;;28.94;59.23
18527;BME280;9393;42.158;24.748;2022-09-17T12:55:19;98323.34;;;28.83;58.52
18527;BME280;9393;42.158;24.748;2022-09-17T12:58:35;98313.66;;;28.64;59.74
18527;BME280;9393;42.158;24.748;2022-09-17T13:01:49;98314.34;;;29.12;58.23
18527;BME280;9393;42.158;24.748;2022-09-17T13:05:33;98326.97;;;29.11;58.01
18527;BME280;9393;42.158;24.748;2022-09-17T13:08:57;98323.78;;;29.46;56.92
18527;BME280;9393;42.158;24.748;2022-09-17T13:12:12;98310.31;;;28.95;58.07
18527;BME280;9393;42.158;24.748;2022-09-17T13:15:49;98302.81;;;29.11;55.91
18527;BME280;9393;42.158;24.748;2022-09-17T13:19:02;98310.44;;;29.23;56.21
18527;BME280;9393;42.158;24.748;2022-09-17T13:22:27;98302.75;;;28.97;55.61
18527;BME280;9393;42.158;24.748;2022-09-17T13:25:31;98297.19;;;29.45;53.41
18527;BME280;9393;42.158;24.748;2022-09-17T13:28:39;98307.94;;;29.45;56.95
18527;BME280;9393;42.158;24.748;2022-09-17T13:31:48;98308.00;;;29.72;52.19
18527;BME280;9393;42.158;24.748;2022-09-17T13:34:53;98309.28;;;29.61;50.04
18527;BME280;9393;42.158;24.748;2022-09-17T13:37:57;98307.03;;;29.68;50.79
18527;BME280;9393;42.158;24.748;2022-09-17T13:41:17;98299.88;;;29.77;51.37
18527;BME280;9393;42.158;24.748;2022-09-17T13:44:22;98297.34;;;29.99;49.86
18527;BME280;9393;42.158;24.748;2022-09-17T13:47:27;98286.97;;;29.47;51.74
18527;BME280;9393;42.158;24.748;2022-09-17T13:50:34;98285.31;;;29.32;52.20
18527;BME280;9393;42.158;24.748;2022-09-17T13:53:38;98290.69;;;29.14;53.84
18527;BME280;9393;42.158;24.748;2022-09-17T13:56:43;98296.84;;;29.14;54.44
18527;BME280;9393;42.158;24.748;2022-09-17T13:59:54;98286.38;;;28.56;55.60
18527;BME280;9393;42.158;24.748;2022-09-17T14:03:36;98274.72;;;28.66;56.43
18527;BME280;9393;42.158;24.748;2022-09-17T14:06:50;98261.44;;;28.37;56.19
18527;BME280;9393;42.158;24.748;2022-09-17T14:09:55;98254.81;;;28.72;55.08
18527;BME280;9393;42.158;24.748;2022-09-17T14:13:37;98248.97;;;28.46;55.42
18527;BME280;9393;42.158;24.748;2022-09-17T14:16:45;98250.66;;;28.61;53.73
18527;BME280;9393;42.158;24.748;2022-09-17T14:19:51;98255.06;;;28.33;55.40
18527;BME280;9393;42.158;24.748;2022-09-17T14:22:59;98255.53;;;28.17;55.63
18527;BME280;9393;42.158;24.748;2022-09-17T14:26:08;98256.59;;;28.16;56.11
18527;BME280;9393;42.158;24.748;2022-09-17T14:29:23;98259.16;;;27.78;56.30
18527;BME280;9393;42.158;24.748;2022-09-17T14:32:37;98261.25;;;27.81;56.84
18527;BME280;9393;42.158;24.748;2022-09-17T14:35:44;98253.22;;;28.05;56.26
18527;BME280;9393;42.158;24.748;2022-09-17T14:38:51;98261.59;;;27.98;56.48
18527;BME280;9393;42.158;24.748;2022-09-17T14:41:57;98260.69;;;27.84;57.37
18527;BME280;9393;42.158;24.748;2022-09-17T14:45:06;98257.88;;;27.94;56.96
18527;BME280;9393;42.158;24.748;2022-09-17T14:48:28;98239.41;;;27.93;55.33
18527;BME280;9393;42.158;24.748;2022-09-17T14:51:37;98228.44;;;28.18;54.70
18527;BME280;9393;42.158;24.748;2022-09-17T14:54:42;98220.25;;;28.04;55.16
18527;BME280;9393;42.158;24.748;2022-09-17T14:57:48;98197.28;;;28.22;54.83
18527;BME280;9393;42.158;24.748;2022-09-17T15:00:52;98183.91;;;27.51;56.59
18527;BME280;9393;42.158;24.748;2022-09-17T15:04:09;98208.84;;;27.41;58.09
18527;BME280;9393;42.158;24.748;2022-09-17T15:07:12;98213.38;;;27.51;58.33
18527;BME280;9393;42.158;24.748;2022-09-17T15:10:19;98212.03;;;27.48;58.19
18527;BME280;9393;42.158;24.748;2022-09-17T15:13:25;98216.72;;;27.33;58.58
18527;BME280;9393;42.158;24.748;2022-09-17T15:16:29;98216.72;;;27.33;58.21
18527;BME280;9393;42.158;24.748;2022-09-17T15:19:36;98213.81;;;27.29;59.25
18527;BME280;9393;42.158;24.748;2022-09-17T15:22:41;98204.28;;;26.35;62.17
18527;BME280;9393;42.158;24.748;2022-09-17T15:25:51;98210.44;;;26.85;60.39
18527;BME280;9393;42.158;24.748;2022-09-17T15:28:57;98194.53;;;26.98;59.50
18527;BME280;9393;42.158;24.748;2022-09-17T15:32:03;98193.97;;;26.62;61.11
18527;BME280;9393;42.158;24.748;2022-09-17T15:35:19;98193.31;;;26.81;60.94
18527;BME280;9393;42.158;24.748;2022-09-17T15:38:26;98235.44;;;26.60;62.29
18527;BME280;9393;42.158;24.748;2022-09-17T15:41:33;98273.81;;;26.25;63.38
18527;BME280;9393;42.158;24.748;2022-09-17T15:44:36;98330.00;;;25.95;65.21
18527;BME280;9393;42.158;24.748;2022-09-17T15:47:50;98332.91;;;26.24;64.90
18527;BME280;9393;42.158;24.748;2022-09-17T15:50:55;98330.50;;;25.97;66.77
18527;BME280;9393;42.158;24.748;2022-09-17T15:53:59;98359.38;;;25.85;69.52
18527;BME280;9393;42.158;24.748;2022-09-17T15:57:13;98405.03;;;25.63;72.48
18527;BME280;9393;42.158;24.748;2022-09-17T16:00:18;98442.84;;;25.20;77.26
18527;BME280;9393;42.158;24.748;2022-09-17T16:04:01;98451.91;;;25.19;78.30
18527;BME280;9393;42.158;24.748;2022-09-17T16:07:33;98455.59;;;24.55;82.98
18527;BME280;9393;42.158;24.748;2022-09-17T16:10:36;98483.69;;;24.73;81.44
18527;BME280;9393;42.158;24.748;2022-09-17T16:13:41;98515.06;;;24.61;81.70
18527;BME280;9393;42.158;24.748;2022-09-17T16:16:44;98493.88;;;24.39;83.68
18527;BME280;9393;42.158;24.748;2022-09-17T16:19:48;98449.38;;;24.40;82.57
18527;BME280;9393;42.158;24.748;2022-09-17T16:22:52;98394.88;;;24.73;82.01
18527;BME280;9393;42.158;24.748;2022-09-17T16:25:56;98373.25;;;24.59;81.90
18527;BME280;9393;42.158;24.748;2022-09-17T16:29:04;98330.13;;;24.77;82.37
18527;BME280;9393;42.158;24.748;2022-09-17T16:32:09;98306.56;;;24.44;83.51
18527;BME280;9393;42.158;24.748;2022-09-17T16:35:13;98324.75;;;24.62;82.73
18527;BME280;9393;42.158;24.748;2022-09-17T16:38:18;98288.56;;;24.86;82.37
18527;BME280;9393;42.158;24.748;2022-09-17T16:41:21;98258.47;;;24.86;82.51